Time;durP1;ratioP1;P1;durP2;ratioP2;P2;SDS_P1;SDS_P2;PMS_P1;PMS_P2;Temp;Humidity;BMP_temperature;BMP_pressure;BME280_temperature;BME280_humidity;BME280_pressure;Samples;Min_cycle;Max_cycle;Signal;HPM_P1;HPM_P2
2023/02/12 00:01:13;;;;;;;42.80;14.30;;;;;;;0.97;69.19;99550.64;79367;1295;3013079;-62
2023/02/12 00:03:40;;;;;;;25.90;12.10;;;;;;;1.03;68.92;99542.23;79336;1295;3011596;-62
2023/02/12 00:06:09;;;;;;;19.20;8.90;;;;;;;0.84;69.03;99535.55;78061;1294;3048870;-62
2023/02/12 00:08:36;;;;;;;23.50;11.80;;;;;;;0.71;68.70;99537.69;79312;1300;3013437;-62
2023/02/12 00:11:14;;;;;;;22.10;10.60;;;;;;;0.33;69.91;99531.33;79259;1299;3012383;-62
2023/02/12 00:13:42;;;;;;;25.30;10.90;;;;;;;0.35;69.73;99520.08;78110;1299;3052014;-62
2023/02/12 00:16:10;;;;;;;23.90;11.90;;;;;;;0.20;70.02;99511.23;79321;1295;3013155;-62
2023/02/12 00:18:38;;;;;;;22.00;10.00;;;;;;;0.10;70.51;99512.60;79295;1294;3011777;-62
2023/02/12 00:21:09;;;;;;;23.30;11.30;;;;;;;0.10;69.80;99506.74;78090;1299;3050814;-62
2023/02/12 00:23:36;;;;;;;19.30;10.20;;;;;;;0.03;70.00;99506.70;79407;1299;3011708;-61
2023/02/12 00:26:09;;;;;;;22.60;10.50;;;;;;;0.16;69.08;99502.34;78187;1298;3026633;-62
2023/02/12 00:28:37;;;;;;;20.20;10.70;;;;;;;0.07;69.36;99499.06;79392;1295;3013673;-62
2023/02/12 00:31:09;;;;;;;23.90;11.40;;;;;;;-0.07;69.77;99497.39;78106;1295;3053215;-63
2023/02/12 00:33:36;;;;;;;25.60;11.00;;;;;;;-0.09;69.98;99492.42;79434;1300;3011650;-62
2023/02/12 00:36:05;;;;;;;22.90;10.00;;;;;;;-0.08;69.88;99490.52;78100;1299;3028821;-62
2023/02/12 00:38:33;;;;;;;20.30;9.50;;;;;;;-0.10;69.76;99480.74;79280;1300;3011503;-62
2023/02/12 00:41:02;;;;;;;23.30;10.20;;;;;;;-0.03;69.23;99480.45;78810;1298;3012840;-62
2023/02/12 00:43:29;;;;;;;20.00;9.00;;;;;;;-0.08;69.29;99469.69;79359;1295;3013003;-62
2023/02/12 00:45:56;;;;;;;21.90;11.40;;;;;;;-0.01;69.10;99470.44;79357;1298;3013343;-62
2023/02/12 00:48:24;;;;;;;23.10;9.80;;;;;;;-0.11;69.20;99464.21;78114;1296;3027141;-62
2023/02/12 00:50:51;;;;;;;20.30;9.40;;;;;;;-0.10;69.29;99457.15;79420;1295;3013474;-62
2023/02/12 00:53:18;;;;;;;20.00;9.50;;;;;;;-0.21;69.23;99457.51;79409;1298;3011724;-62
2023/02/12 00:55:46;;;;;;;21.40;9.30;;;;;;;-0.33;69.56;99453.73;78180;1298;3026623;-62
2023/02/12 00:58:15;;;;;;;19.70;9.00;;;;;;;-0.27;70.00;99450.73;82065;1295;3011299;-62
2023/02/12 01:00:42;;;;;;;22.60;8.80;;;;;;;-0.21;69.57;99438.56;82037;1294;3011198;-63
2023/02/12 01:03:10;;;;;;;18.90;8.70;;;;;;;-0.39;69.94;99435.44;80761;1295;3049419;-63
2023/02/12 01:05:37;;;;;;;18.30;9.20;;;;;;;-0.34;70.50;99442.92;82052;1294;3012987;-62
2023/02/12 01:08:04;;;;;;;18.50;9.50;;;;;;;-0.41;70.73;99438.39;82022;1294;3011585;-63
2023/02/12 01:10:32;;;;;;;21.60;10.40;;;;;;;-0.42;70.72;99435.47;80762;1296;3025701;-63
2023/02/12 01:12:58;;;;;;;20.60;9.80;;;;;;;-0.34;70.34;99442.25;82058;1295;3012781;-62
2023/02/12 01:15:25;;;;;;;20.80;9.00;;;;;;;-0.26;69.91;99439.70;81994;1296;3011012;-62
2023/02/12 01:17:53;;;;;;;18.70;9.50;;;;;;;-0.40;70.23;99433.02;80710;1295;3026211;-62
2023/02/12 01:20:23;;;;;;;22.40;9.70;;;;;;;-0.29;69.95;99431.31;82047;1294;3011456;-62
2023/02/12 01:22:52;;;;;;;22.20;9.60;;;;;;;-0.31;69.31;99439.25;81472;1294;3012467;-62
2023/02/12 01:25:23;;;;;;;21.10;9.90;;;;;;;-0.33;69.71;99433.62;82040;1294;3011124;-62
2023/02/12 01:27:52;;;;;;;17.50;8.70;;;;;;;-0.38;69.56;99426.27;80790;1294;3027650;-62
2023/02/12 01:30:22;;;;;;;17.00;8.30;;;;;;;-0.37;69.75;99435.23;82031;1294;3012782;-62
2023/02/12 01:32:54;;;;;;;20.60;8.10;;;;;;;-0.32;69.51;99434.63;80763;1294;3051335;-62
2023/02/12 01:35:21;;;;;;;19.20;8.10;;;;;;;-0.35;69.59;99425.55;82050;1295;3012635;-62
2023/02/12 01:37:48;;;;;;;30.10;12.20;;;;;;;-0.29;69.22;99424.42;82013;1294;3011193;-61
2023/02/12 01:40:16;;;;;;;19.10;9.70;;;;;;;-0.44;69.52;99427.06;80776;1294;3049355;-61
2023/02/12 01:42:44;;;;;;;13.80;7.00;;;;;;;-0.37;69.14;99416.80;81941;1294;3011196;-62
2023/02/12 01:45:11;;;;;;;15.90;7.70;;;;;;;-0.40;68.74;99412.02;82060;1294;3011725;-62
2023/02/12 01:47:42;;;;;;;23.20;10.00;;;;;;;-0.39;69.05;99407.89;80793;1296;3051392;-62
2023/02/12 01:50:10;;;;;;;23.40;9.20;;;;;;;-0.33;68.96;99407.09;82080;1294;3012939;-61
2023/02/12 01:52:42;;;;;;;16.40;7.80;;;;;;;-0.50;68.63;99402.04;80678;1294;3056431;-62
2023/02/12 01:55:09;;;;;;;17.70;8.10;;;;;;;-0.41;68.99;99399.84;81943;1294;3011273;-61
2023/02/12 01:57:40;;;;;;;19.10;8.20;;;;;;;-0.44;69.06;99401.61;80677;1294;3026358;-62
2023/02/12 02:00:10;;;;;;;14.20;6.90;;;;;;;-0.55;68.97;99402.13;82038;1294;3011204;-62
2023/02/12 02:02:47;;;;;;;14.60;7.40;;;;;;;-0.61;69.47;99400.34;80800;1294;3051692;-62
2023/02/12 02:05:15;;;;;;;17.70;7.90;;;;;;;-0.56;68.83;99401.64;81960;1297;3013200;-62
2023/02/12 02:07:44;;;;;;;20.50;7.80;;;;;;;-0.65;69.13;99400.58;81355;1294;3011446;-61
2023/02/12 02:10:10;;;;;;;19.00;7.00;;;;;;;-0.70;69.62;99393.77;82065;1294;3012343;-62
2023/02/12 02:15:25;;;;;;;19.90;8.50;;;;;;;-0.63;68.83;99396.92;80686;1294;3053157;-61
2023/02/12 02:18:18;;;;;;;15.50;7.00;;;;;;;-0.64;68.44;99389.36;81965;1294;3011843;-61
2023/02/12 02:21:12;;;;;;;16.50;7.80;;;;;;;-0.69;68.95;99385.48;80762;1294;3052550;-62
2023/02/12 02:24:11;;;;;;;17.60;8.20;;;;;;;-0.69;68.53;99384.96;80763;1296;3051519;-61
2023/02/12 02:26:48;;;;;;;18.00;7.20;;;;;;;-0.66;68.00;99387.68;80728;1294;3069084;-61
2023/02/12 02:29:34;;;;;;;15.60;7.40;;;;;;;-0.70;67.90;99388.45;80787;1294;3052012;-62
2023/02/12 02:32:08;;;;;;;13.00;7.70;;;;;;;-0.71;68.12;99375.89;80790;1294;3056435;-61
2023/02/12 02:35:03;;;;;;;16.10;7.30;;;;;;;-0.50;68.00;99367.30;82023;1294;3011289;-62
2023/02/12 02:37:48;;;;;;;17.10;7.70;;;;;;;-0.64;68.15;99362.71;80742;1298;3051710;-61
2023/02/12 02:40:23;;;;;;;16.40;7.30;;;;;;;-0.86;69.07;99372.52;80752;1295;3050192;-61
2023/02/12 02:42:59;;;;;;;19.70;8.50;;;;;;;-0.83;69.05;99385.19;81430;1296;3011253;-62
2023/02/12 02:45:39;;;;;;;15.40;7.70;;;;;;;-0.93;69.54;99387.75;80740;1297;3051166;-61
2023/02/12 02:48:28;;;;;;;16.20;7.80;;;;;;;-0.87;69.67;99380.61;80797;1294;3051260;-61
2023/02/12 02:51:03;;;;;;;15.40;6.60;;;;;;;-0.91;69.18;99385.66;80675;1295;3067942;-61
2023/02/12 02:53:34;;;;;;;20.90;8.10;;;;;;;-0.79;69.13;99383.23;81489;1294;3011226;-61
2023/02/12 02:56:02;;;;;;;16.40;8.00;;;;;;;-0.87;69.53;99384.74;82106;1294;3011237;-61
2023/02/12 02:58:35;;;;;;;16.70;7.80;;;;;;;-0.90;69.69;99369.82;81500;1294;3011475;-61
2023/02/12 03:01:07;;;;;;;14.40;8.10;;;;;;;-1.01;70.21;99365.35;81932;1295;3011415;-61
2023/02/12 03:03:40;;;;;;;18.60;9.00;;;;;;;-1.04;70.40;99364.19;80803;1294;3052351;-61
2023/02/12 03:06:29;;;;;;;14.60;7.20;;;;;;;-1.04;70.13;99360.41;82025;1294;3011247;-62
2023/02/12 03:09:01;;;;;;;18.20;8.40;;;;;;;-1.00;70.26;99366.71;80825;1294;3053470;-62
2023/02/12 03:11:29;;;;;;;18.70;8.70;;;;;;;-0.97;69.72;99358.58;82019;1298;3011229;-62
2023/02/12 03:14:09;;;;;;;18.90;9.80;;;;;;;-1.04;70.00;99360.41;80777;1294;3068807;-62
2023/02/12 03:16:51;;;;;;;16.90;8.20;;;;;;;-1.00;69.79;99362.23;80766;1294;3051432;-62
2023/02/12 03:19:24;;;;;;;16.80;7.80;;;;;;;-1.00;69.77;99372.38;80658;1297;3056417;-62
2023/02/12 03:22:03;;;;;;;16.80;8.50;;;;;;;-0.92;69.53;99357.48;81551;1294;3011228;-62
2023/02/12 03:24:35;;;;;;;17.90;8.00;;;;;;;-0.92;69.30;99365.55;80760;1294;3049263;-62
2023/02/12 03:27:06;;;;;;;14.90;6.70;;;;;;;-0.99;69.73;99365.50;82074;1294;3011493;-62
2023/02/12 03:29:34;;;;;;;15.00;8.20;;;;;;;-0.88;69.38;99362.07;80805;1294;3048810;-61
2023/02/12 03:32:09;;;;;;;17.70;8.20;;;;;;;-0.89;69.28;99361.39;82047;1297;3012734;-61
2023/02/12 03:34:52;;;;;;;18.50;8.90;;;;;;;-0.95;69.72;99352.88;80754;1294;3069536;-62
2023/02/12 03:37:30;;;;;;;21.80;9.40;;;;;;;-1.04;70.34;99350.44;80751;1295;3051237;-61
2023/02/12 03:40:36;;;;;;;17.30;7.80;;;;;;;-1.06;70.24;99354.60;80757;1294;3057246;-62
2023/02/12 03:43:36;;;;;;;15.60;8.10;;;;;;;-1.18;71.14;99360.09;80594;1294;3048583;-62
2023/02/12 03:46:11;;;;;;;13.80;7.90;;;;;;;-1.10;70.97;99356.90;80644;1294;3053601;-62
2023/02/12 03:48:43;;;;;;;16.10;8.30;;;;;;;-1.12;71.72;99360.36;80751;1294;3048091;-61
2023/02/12 03:51:18;;;;;;;19.00;9.80;;;;;;;-1.13;72.09;99355.73;82085;1294;3011460;-62
2023/02/12 03:53:46;;;;;;;16.90;9.20;;;;;;;-1.35;74.15;99356.04;80727;1299;3051561;-61
2023/02/12 03:56:17;;;;;;;19.30;9.90;;;;;;;-1.37;74.54;99356.05;82100;1294;3018181;-61
2023/02/12 03:58:44;;;;;;;17.50;8.00;;;;;;;-1.43;75.28;99351.85;80661;1295;3056098;-62
2023/02/12 04:01:11;;;;;;;21.60;10.40;;;;;;;-1.38;75.54;99359.18;82061;1294;3012593;-61
2023/02/12 04:03:38;;;;;;;17.90;9.10;;;;;;;-1.52;76.68;99357.82;81915;1294;3011319;-62
2023/02/12 04:06:27;;;;;;;21.30;9.30;;;;;;;-1.45;76.65;99363.05;80774;1295;3025832;-62
2023/02/12 04:08:57;;;;;;;8.90;4.20;;;;;;;-1.57;78.75;99358.39;80827;1294;3051650;-62
2023/02/12 04:11:34;;;;;;;18.20;8.10;;;;;;;-0.63;77.07;99360.09;82009;1296;3013170;-62
2023/02/12 04:14:27;;;;;;;29.20;12.90;;;;;;;-0.45;75.86;99352.23;80816;1294;3050143;-62
2023/02/12 04:17:05;;;;;;;26.20;12.50;;;;;;;-0.51;76.15;99360.42;80841;1294;3058271;-62
2023/02/12 04:19:51;;;;;;;23.40;10.40;;;;;;;-0.70;77.04;99345.95;80766;1294;3049085;-62
2023/02/12 04:22:25;;;;;;;19.30;9.70;;;;;;;-0.70;76.79;99352.14;80749;1294;3053643;-62
2023/02/12 04:25:13;;;;;;;16.50;9.10;;;;;;;-0.82;76.89;99353.19;81534;1294;3011421;-61
2023/02/12 04:28:00;;;;;;;18.30;9.30;;;;;;;-0.93;77.02;99355.27;80807;1294;3049283;-61
2023/02/12 04:30:33;;;;;;;16.90;9.00;;;;;;;-1.18;77.79;99354.77;80814;1294;3052491;-62
2023/02/12 04:33:05;;;;;;;19.80;8.90;;;;;;;-1.24;78.19;99353.14;80721;1297;3051915;-62
2023/02/12 04:35:34;;;;;;;18.20;9.00;;;;;;;-1.55;80.11;99353.05;82094;1294;3013601;-61
2023/02/12 04:38:10;;;;;;;22.40;10.80;;;;;;;-1.53;80.36;99346.32;82072;1294;3011188;-62
2023/02/12 04:40:38;;;;;;;25.70;11.20;;;;;;;-1.62;81.05;99347.82;80658;1295;3049349;-61
2023/02/12 04:43:05;;;;;;;27.20;12.40;;;;;;;-1.75;81.86;99351.07;81973;1294;3011375;-62
2023/02/12 04:45:33;;;;;;;12.00;7.20;;;;;;;-1.57;81.81;99352.71;82035;1294;3011248;-62
2023/02/12 04:48:03;;;;;;;25.30;8.70;;;;;;;-0.88;80.49;99352.42;80783;1298;3051063;-62
2023/02/12 04:50:41;;;;;;;21.30;10.50;;;;;;;-0.51;78.75;99354.91;82044;1297;3013775;-62
2023/02/12 04:53:08;;;;;;;28.00;10.90;;;;;;;-0.54;78.16;99359.95;80780;1294;3056906;-62
2023/02/12 04:55:36;;;;;;;22.40;10.50;;;;;;;-0.79;78.47;99353.64;82101;1294;3012695;-62
2023/02/12 04:58:03;;;;;;;20.90;10.00;;;;;;;-0.90;79.27;99362.60;82076;1294;3011182;-63
2023/02/12 05:00:31;;;;;;;30.30;11.10;;;;;;;-1.12;78.90;99363.27;80804;1294;3051888;-62
2023/02/12 05:02:58;;;;;;;22.70;10.90;;;;;;;-1.28;80.13;99360.08;82097;1294;3013175;-62
2023/02/12 05:05:24;;;;;;;22.20;10.00;;;;;;;-1.26;80.11;99356.77;82036;1294;3010866;-62
2023/02/12 05:07:52;;;;;;;26.70;11.10;;;;;;;-1.43;80.73;99360.27;80835;1294;3026070;-62
2023/02/12 05:10:19;;;;;;;25.80;12.20;;;;;;;-1.56;81.82;99360.61;82074;1294;3018244;-62
2023/02/12 05:12:51;;;;;;;24.20;10.90;;;;;;;-1.65;81.92;99369.15;82063;1294;3011303;-62
2023/02/12 05:15:19;;;;;;;24.60;11.70;;;;;;;-1.61;81.86;99367.54;80798;1294;3052442;-62
2023/02/12 05:17:46;;;;;;;17.50;7.90;;;;;;;-1.51;82.25;99365.70;82114;1294;3012686;-62
2023/02/12 05:20:13;;;;;;;17.30;8.30;;;;;;;-0.81;80.38;99374.50;82057;1294;3011170;-62
2023/02/12 05:22:40;;;;;;;16.80;9.20;;;;;;;-0.29;78.16;99365.87;80798;1294;3026605;-62
2023/02/12 05:25:07;;;;;;;20.50;9.70;;;;;;;-0.57;77.96;99372.89;82044;1294;3018147;-62
2023/02/12 05:27:34;;;;;;;22.30;11.20;;;;;;;-0.63;78.97;99369.73;82023;1298;3010937;-62
2023/02/12 05:30:05;;;;;;;22.80;10.30;;;;;;;-0.84;79.42;99368.01;80811;1294;3052388;-62
2023/02/12 05:32:32;;;;;;;23.60;10.50;;;;;;;-0.98;79.88;99375.46;82089;1294;3013010;-62
2023/02/12 05:34:58;;;;;;;24.50;10.30;;;;;;;-1.06;80.42;99369.38;82065;1294;3011375;-62
2023/02/12 05:37:26;;;;;;;20.50;10.40;;;;;;;-1.17;81.18;99373.65;80805;1294;3057430;-61
2023/02/12 05:39:53;;;;;;;24.60;11.60;;;;;;;-1.15;81.41;99382.05;82078;1294;3013125;-62
2023/02/12 05:42:20;;;;;;;24.10;11.00;;;;;;;-1.23;82.03;99373.92;82041;1294;3011254;-61
2023/02/12 05:44:48;;;;;;;16.00;7.40;;;;;;;-1.24;82.81;99378.90;80801;1294;3027076;-61
2023/02/12 05:47:14;;;;;;;20.90;9.20;;;;;;;-0.52;81.36;99375.24;82080;1294;3018709;-62
2023/02/12 05:49:41;;;;;;;14.00;7.10;;;;;;;-0.36;80.69;99376.35;82065;1294;3011145;-62
2023/02/12 05:52:09;;;;;;;15.40;8.80;;;;;;;-0.16;79.71;99376.86;80802;1294;3027157;-62
2023/02/12 05:54:36;;;;;;;22.20;10.60;;;;;;;-0.28;79.64;99370.50;82089;1294;3012593;-62
2023/02/12 05:57:02;;;;;;;17.70;10.70;;;;;;;-0.39;79.22;99380.88;82035;1294;3011253;-62
2023/02/12 05:59:30;;;;;;;19.20;9.70;;;;;;;-0.67;79.82;99377.89;80840;1294;3026138;-62
2023/02/12 06:01:57;;;;;;;22.10;12.40;;;;;;;-0.78;80.37;99378.23;82094;1297;3011347;-61
2023/02/12 06:04:26;;;;;;;23.00;12.30;;;;;;;-0.99;81.83;99391.11;82066;1294;3011417;-62
2023/02/12 06:06:54;;;;;;;20.90;11.20;;;;;;;-1.07;82.18;99397.40;80809;1295;3056936;-62
2023/02/12 06:09:21;;;;;;;19.90;11.30;;;;;;;-1.22;82.48;99400.38;82079;1294;3017886;-62
2023/02/12 06:11:49;;;;;;;11.70;6.90;;;;;;;-1.17;82.72;99402.36;82060;1294;3011110;-62
2023/02/12 06:14:18;;;;;;;16.90;8.60;;;;;;;-0.28;81.89;99395.64;80806;1294;3051175;-62
2023/02/12 06:16:49;;;;;;;23.90;10.10;;;;;;;0.50;78.12;99400.20;82106;1294;3012944;-62
2023/02/12 06:19:17;;;;;;;19.10;8.40;;;;;;;0.17;78.26;99400.52;80811;1294;3050301;-62
2023/02/12 06:21:44;;;;;;;18.20;9.50;;;;;;;0.30;78.30;99398.72;82098;1294;3012733;-62
2023/02/12 06:24:15;;;;;;;17.40;10.10;;;;;;;-0.21;79.27;99401.55;81501;1294;3011454;-63
2023/02/12 06:26:44;;;;;;;23.60;11.60;;;;;;;0.01;78.72;99401.16;82069;1294;3011549;-62
2023/02/12 06:29:13;;;;;;;23.90;12.10;;;;;;;-0.35;80.02;99397.14;81568;1294;3011169;-62
2023/02/12 06:31:39;;;;;;;24.40;11.80;;;;;;;-0.34;80.90;99408.33;82083;1299;3019271;-62
2023/02/12 06:34:07;;;;;;;20.50;10.90;;;;;;;-0.38;80.79;99411.50;82051;1294;3011342;-62
2023/02/12 06:36:36;;;;;;;22.20;9.70;;;;;;;-0.43;81.11;99415.19;80806;1294;3052294;-62
2023/02/12 06:39:02;;;;;;;22.00;11.40;;;;;;;-0.46;81.92;99416.78;82085;1294;3011359;-62
2023/02/12 06:41:29;;;;;;;10.90;6.00;;;;;;;-0.41;82.14;99416.70;82069;1294;3011298;-62
2023/02/12 06:43:58;;;;;;;14.40;7.10;;;;;;;0.07;82.20;99420.86;80772;1294;3049249;-62
2023/02/12 06:46:24;;;;;;;15.90;8.50;;;;;;;0.65;80.62;99420.07;82083;1294;3012512;-62
2023/02/12 06:48:55;;;;;;;19.90;10.50;;;;;;;0.59;80.18;99418.47;82052;1294;3011202;-62
2023/02/12 06:51:22;;;;;;;17.90;9.90;;;;;;;0.64;80.18;99421.82;80798;1294;3050825;-62
2023/02/12 06:53:50;;;;;;;19.00;10.30;;;;;;;0.47;80.83;99425.80;82099;1294;3018295;-63
2023/02/12 06:56:17;;;;;;;26.00;12.50;;;;;;;0.34;81.27;99425.86;82092;1294;3011410;-62
2023/02/12 06:58:46;;;;;;;26.10;12.10;;;;;;;0.23;82.44;99421.93;80803;1294;3049738;-62
2023/02/12 07:01:26;;;;;;;32.20;13.40;;;;;;;0.29;82.79;99431.98;80821;1294;3051846;-62
2023/02/12 07:03:57;;;;;;;28.30;12.30;;;;;;;0.34;82.87;99428.79;82113;1294;3012830;-62
2023/02/12 07:06:25;;;;;;;27.30;12.80;;;;;;;0.25;83.53;99437.76;80811;1294;3051230;-62
2023/02/12 07:08:53;;;;;;;23.90;8.20;;;;;;;0.21;84.67;99440.73;82081;1294;3012362;-62
2023/02/12 07:11:24;;;;;;;23.30;9.30;;;;;;;0.93;84.01;99431.38;82070;1294;3011309;-62
2023/02/12 07:13:53;;;;;;;18.20;9.50;;;;;;;1.56;81.29;99429.93;80817;1294;3049495;-63
2023/02/12 07:16:20;;;;;;;23.50;11.40;;;;;;;1.67;79.81;99430.18;82092;1294;3018140;-63
2023/02/12 07:18:48;;;;;;;19.70;10.50;;;;;;;1.50;79.78;99433.19;82034;1300;3011233;-63
2023/02/12 07:21:16;;;;;;;21.10;11.10;;;;;;;1.25;80.54;99428.23;80803;1294;3051596;-62
2023/02/12 07:23:47;;;;;;;22.20;11.00;;;;;;;1.14;80.56;99431.77;82087;1294;3013240;-62
2023/02/12 07:26:17;;;;;;;19.10;9.60;;;;;;;1.12;81.15;99436.48;80804;1294;3052392;-62
2023/02/12 07:28:44;;;;;;;19.40;10.40;;;;;;;1.02;81.11;99439.63;82089;1298;3012578;-62
2023/02/12 07:31:12;;;;;;;23.80;12.00;;;;;;;0.91;81.78;99449.70;82048;1294;3011485;-62
2023/02/12 07:33:40;;;;;;;20.00;9.80;;;;;;;0.87;82.55;99453.23;80847;1295;3068757;-62
2023/02/12 07:36:09;;;;;;;14.50;6.90;;;;;;;0.89;82.51;99454.58;82088;1295;3012635;-63
2023/02/12 07:38:38;;;;;;;12.50;6.20;;;;;;;1.44;81.43;99453.15;81521;1295;3011187;-63
2023/02/12 07:41:06;;;;;;;16.10;8.20;;;;;;;2.15;78.87;99444.34;82054;1298;3012699;-63
2023/02/12 07:43:33;;;;;;;17.80;8.00;;;;;;;2.03;77.92;99455.36;82054;1294;3011054;-63
2023/02/12 07:46:08;;;;;;;16.20;8.00;;;;;;;1.88;78.26;99459.70;80793;1294;3052134;-63
2023/02/12 07:48:37;;;;;;;11.80;6.70;;;;;;;1.44;79.00;99485.80;81563;1294;3011145;-63
2023/02/12 07:51:05;;;;;;;8.20;4.70;;;;;;;0.96;77.78;99479.60;82094;1294;3013156;-63
2023/02/12 07:53:32;;;;;;;9.30;4.90;;;;;;;0.55;75.62;99504.05;82059;1294;3011242;-63
2023/02/12 07:56:10;;;;;;;8.20;4.20;;;;;;;0.45;73.45;99499.58;80802;1294;3055378;-63
2023/02/12 07:58:38;;;;;;;3.20;1.70;;;;;;;0.35;69.63;99512.52;80781;1295;3048272;-63
2023/02/12 08:01:34;;;;;;;2.10;1.00;;;;;;;0.21;65.45;99508.79;80768;1294;3053802;-62
2023/02/12 08:04:11;;;;;;;1.80;1.00;;;;;;;0.15;64.41;99518.91;80811;1294;3049099;-63
2023/02/12 08:06:41;;;;;;;3.10;1.00;;;;;;;0.27;63.51;99521.96;80821;1298;3051802;-62
2023/02/12 08:09:10;;;;;;;4.70;0.80;;;;;;;0.18;62.47;99526.59;82058;1298;3011434;-62
2023/02/12 08:11:39;;;;;;;2.10;0.80;;;;;;;-0.04;61.25;99532.29;80800;1294;3068572;-63
2023/02/12 08:14:09;;;;;;;3.20;0.90;;;;;;;-0.10;61.59;99549.10;82076;1294;3011220;-62
2023/02/12 08:16:38;;;;;;;2.60;1.20;;;;;;;0.08;61.64;99543.12;81415;1294;3011771;-62
2023/02/12 08:19:05;;;;;;;2.90;1.30;;;;;;;0.18;61.24;99545.20;82078;1294;3013092;-61
2023/02/12 08:21:32;;;;;;;4.60;0.90;;;;;;;0.23;60.64;99543.21;82024;1295;3011296;-63
2023/02/12 08:24:00;;;;;;;9.40;1.10;;;;;;;0.39;60.28;99538.81;80834;1298;3051713;-62
2023/02/12 08:26:28;;;;;;;4.00;1.10;;;;;;;0.45;59.99;99544.57;82105;1294;3012616;-62
2023/02/12 08:29:01;;;;;;;3.10;1.40;;;;;;;0.33;59.71;99555.13;82081;1294;3010940;-62
2023/02/12 08:31:31;;;;;;;3.40;1.30;;;;;;;0.39;60.09;99554.84;80802;1294;3056054;-61
2023/02/12 08:33:59;;;;;;;3.90;1.00;;;;;;;0.24;59.90;99570.42;82046;1295;3011466;-62
2023/02/12 08:36:33;;;;;;;1.60;0.70;;;;;;;0.20;59.81;99567.57;80800;1295;3051709;-61
2023/02/12 08:39:00;;;;;;;1.90;0.80;;;;;;;0.41;60.06;99570.31;82065;1294;3011178;-62
2023/02/12 08:41:28;;;;;;;1.90;0.70;;;;;;;0.57;59.61;99582.08;80787;1298;3053001;-62
2023/02/12 08:43:57;;;;;;;1.40;0.90;;;;;;;0.46;59.84;99590.91;82076;1295;3018446;-62
2023/02/12 08:46:25;;;;;;;2.70;0.90;;;;;;;0.53;60.02;99596.14;82081;1294;3011199;-62
2023/02/12 08:48:54;;;;;;;3.10;1.30;;;;;;;0.53;59.89;99606.11;80809;1294;3056093;-62
2023/02/12 08:51:22;;;;;;;1.60;0.90;;;;;;;0.58;60.46;99617.41;82041;1299;3012361;-62
2023/02/12 08:53:52;;;;;;;2.50;1.00;;;;;;;0.62;61.06;99600.96;80829;1294;3026617;-62
2023/02/12 08:56:20;;;;;;;2.10;1.00;;;;;;;0.56;61.89;99615.73;82055;1295;3011214;-61
2023/02/12 08:58:49;;;;;;;2.20;0.70;;;;;;;0.31;63.04;99642.84;81567;1298;3011438;-62
2023/02/12 09:01:17;;;;;;;2.50;0.50;;;;;;;0.25;62.46;99620.56;82115;1295;3012351;-62
2023/02/12 09:03:44;;;;;;;1.70;0.80;;;;;;;0.42;62.58;99626.11;82051;1294;3011146;-62
2023/02/12 09:06:12;;;;;;;1.10;0.60;;;;;;;0.51;62.59;99636.31;80811;1294;3055723;-62
2023/02/12 09:08:39;;;;;;;1.80;0.70;;;;;;;0.41;62.56;99639.95;82107;1294;3012865;-61
2023/02/12 09:11:12;;;;;;;2.50;0.90;;;;;;;0.41;62.24;99638.20;81563;1294;3011197;-61
2023/02/12 09:13:40;;;;;;;1.10;0.60;;;;;;;0.34;61.69;99632.65;82050;1298;3011113;-62
2023/02/12 09:16:09;;;;;;;1.90;0.60;;;;;;;0.50;61.15;99634.42;81578;1294;3011128;-61
2023/02/12 09:18:35;;;;;;;1.40;0.70;;;;;;;0.60;61.27;99637.38;82129;1294;3012626;-62
2023/02/12 09:21:06;;;;;;;3.00;1.20;;;;;;;0.53;61.25;99653.70;82072;1295;3011448;-62
2023/02/12 09:23:37;;;;;;;3.70;0.90;;;;;;;0.43;61.11;99649.36;80797;1295;3057475;-62
2023/02/12 09:26:04;;;;;;;3.70;1.10;;;;;;;0.32;61.30;99656.45;82080;1294;3012552;-62
2023/02/12 09:28:31;;;;;;;3.20;1.10;;;;;;;0.25;60.94;99656.56;82063;1296;3011423;-62
2023/02/12 09:31:04;;;;;;;1.00;0.50;;;;;;;0.35;60.08;99649.68;80820;1298;3051937;-62
2023/02/12 09:33:31;;;;;;;2.30;0.70;;;;;;;0.27;60.00;99663.09;82081;1298;3011191;-61
2023/02/12 09:36:03;;;;;;;1.00;0.70;;;;;;;0.09;60.48;99656.45;80809;1298;3068004;-61
2023/02/12 09:38:30;;;;;;;1.80;0.60;;;;;;;-0.06;60.40;99680.94;82053;1298;3011188;-61
2023/02/12 09:41:35;;;;;;;1.80;1.00;;;;;;;-0.03;60.74;99663.34;80797;1295;3026032;-61
2023/02/12 09:44:20;;;;;;;5.30;1.50;;;;;;;0.03;60.71;99659.29;80825;1294;3049029;-61
2023/02/12 09:46:49;;;;;;;2.10;1.10;;;;;;;0.21;59.95;99653.69;80673;1294;3053147;-62
2023/02/12 09:49:49;;;;;;;3.50;1.20;;;;;;;0.23;59.64;99655.89;82082;1295;3011209;-62
2023/02/12 09:52:23;;;;;;;3.50;1.40;;;;;;;0.17;59.39;99649.61;80797;1298;3051942;-62
2023/02/12 09:54:49;;;;;;;3.40;1.00;;;;;;;0.01;60.13;99666.39;80528;1295;3012695;-62
2023/02/12 09:57:24;;;;;;;4.40;1.30;;;;;;;0.07;59.18;99668.71;80839;1295;3050735;-62
2023/02/12 09:59:57;;;;;;;2.20;0.90;;;;;;;0.08;59.29;99675.41;81397;1300;3011220;-61
2023/02/12 10:02:23;;;;;;;2.30;0.90;;;;;;;0.02;58.82;99676.01;82009;1299;3011322;-61
2023/02/12 10:04:52;;;;;;;2.80;0.70;;;;;;;0.17;57.80;99658.39;80831;1295;3027392;-62
2023/02/12 10:07:51;;;;;;;1.70;0.80;;;;;;;0.06;56.55;99666.83;82013;1296;3017960;-62
2023/02/12 10:10:41;;;;;;;1.60;0.90;;;;;;;0.03;56.28;99658.61;80751;1300;3054070;-61
2023/02/12 10:13:37;;;;;;;1.00;0.40;;;;;;;0.07;56.28;99661.65;80761;1300;3051840;-61
2023/02/12 10:16:18;;;;;;;3.00;0.70;;;;;;;-0.11;56.89;99658.13;80598;1295;3070117;-61
2023/02/12 10:19:10;;;;;;;1.90;0.60;;;;;;;0.19;56.68;99650.80;80774;1294;3052652;-61
2023/02/12 10:22:00;;;;;;;2.80;0.90;;;;;;;0.23;56.38;99655.89;80814;1295;3057187;-61
2023/02/12 10:24:52;;;;;;;3.50;1.00;;;;;;;0.26;56.42;99674.10;80832;1294;3048886;-61
2023/02/12 10:27:34;;;;;;;1.40;0.70;;;;;;;0.18;56.12;99687.15;80712;1295;3053096;-61
2023/02/12 10:30:04;;;;;;;3.50;1.10;;;;;;;-0.05;56.66;99694.19;80744;1296;3049622;-62
2023/02/12 10:32:33;;;;;;;3.40;1.20;;;;;;;-0.09;56.64;99686.51;81999;1295;3011542;-61
2023/02/12 10:35:01;;;;;;;2.60;0.90;;;;;;;-0.18;56.09;99682.48;80666;1297;3026795;-61
2023/02/12 10:37:39;;;;;;;0.70;0.40;;;;;;;-0.36;56.35;99713.02;82072;1295;3011707;-61
2023/02/12 10:40:17;;;;;;;1.60;0.70;;;;;;;-0.50;57.66;99685.64;80763;1295;3057511;-61
2023/02/12 10:42:47;;;;;;;4.70;1.00;;;;;;;-0.06;57.00;99687.48;80812;1296;3049205;-61
2023/02/12 10:45:28;;;;;;;3.30;1.10;;;;;;;-0.03;56.33;99693.65;81949;1296;3012801;-61
2023/02/12 10:48:10;;;;;;;2.00;1.10;;;;;;;-0.36;56.71;99695.29;80838;1294;3052132;-62
2023/02/12 10:50:41;;;;;;;2.00;1.10;;;;;;;-0.41;56.61;99710.50;80821;1295;3051084;-61
2023/02/12 10:53:22;;;;;;;2.10;1.00;;;;;;;-0.29;56.34;99705.53;82072;1297;3011455;-61
2023/02/12 10:56:03;;;;;;;1.90;0.70;;;;;;;-0.36;55.11;99708.54;80859;1294;3052317;-61
2023/02/12 10:58:31;;;;;;;4.00;1.10;;;;;;;-0.45;54.63;99717.77;80754;1295;3055648;-61
2023/02/12 11:00:58;;;;;;;1.60;0.70;;;;;;;-0.54;55.14;99711.84;82110;1295;3012647;-61
2023/02/12 11:03:36;;;;;;;4.00;1.20;;;;;;;-0.43;55.12;99717.58;81917;1294;3011400;-61
2023/02/12 11:06:14;;;;;;;3.30;1.00;;;;;;;-0.28;54.34;99727.89;80820;1295;3052940;-61
2023/02/12 11:08:42;;;;;;;1.90;0.60;;;;;;;-0.50;53.90;99740.36;80833;1295;3051612;-61
2023/02/12 11:11:18;;;;;;;2.10;0.60;;;;;;;-0.61;53.60;99757.52;82112;1294;3012554;-61
2023/02/12 11:14:04;;;;;;;2.40;0.70;;;;;;;-0.53;53.06;99741.09;80772;1295;3057150;-61
2023/02/12 11:16:34;;;;;;;1.60;0.80;;;;;;;-0.55;52.66;99733.19;80780;1294;3050241;-62
2023/02/12 11:19:05;;;;;;;1.20;0.60;;;;;;;-0.61;52.96;99749.77;82009;1293;3011408;-61
2023/02/12 11:21:33;;;;;;;2.30;0.80;;;;;;;-0.37;52.58;99750.21;80816;1297;3049049;-62
2023/02/12 11:24:25;;;;;;;2.00;0.60;;;;;;;-0.62;52.80;99759.60;82096;1294;3012309;-62
2023/02/12 11:27:23;;;;;;;1.50;0.50;;;;;;;-0.69;53.56;99757.44;80850;1294;3069360;-61
2023/02/12 11:30:18;;;;;;;3.40;0.80;;;;;;;-0.59;54.42;99761.97;80831;1294;3052129;-61
2023/02/12 11:32:48;;;;;;;1.70;0.80;;;;;;;-0.55;54.04;99768.65;80812;1294;3056325;-61
2023/02/12 11:35:26;;;;;;;4.90;0.90;;;;;;;-0.74;54.37;99762.30;82103;1294;3011293;-61
2023/02/12 11:37:55;;;;;;;1.10;0.80;;;;;;;-0.65;54.65;99759.45;80840;1294;3053049;-61